Time;durP1;ratioP1;P1;durP2;ratioP2;P2;SDS_P1;SDS_P2;PMS_P1;PMS_P2;Temp;Humidity;BMP_temperature;BMP_pressure;BME280_temperature;BME280_humidity;BME280_pressure;Samples;Min_cycle;Max_cycle;Signal;HPM_P1;HPM_P2
2023/06/01 00:00:25;;;;;;;7.50;3.28;;;;;;;20.41;46.09;102195.38;6192215;23;20025;-64
2023/06/01 00:02:53;;;;;;;7.55;3.60;;;;;;;20.40;46.19;102191.81;6191316;23;20096;-65
2023/06/01 00:05:21;;;;;;;8.45;3.70;;;;;;;20.38;46.26;102193.97;6192206;23;20081;-61
2023/06/01 00:07:49;;;;;;;6.88;4.13;;;;;;;20.37;46.19;102194.19;6192951;23;20028;-65
2023/06/01 00:10:17;;;;;;;5.55;3.00;;;;;;;20.37;46.15;102186.00;6192838;23;20033;-64
2023/06/01 00:12:45;;;;;;;9.30;3.42;;;;;;;20.34;46.18;102187.34;6193597;23;20021;-65
2023/06/01 00:15:13;;;;;;;7.28;4.03;;;;;;;20.31;46.20;102184.28;6193342;23;20032;-65
2023/06/01 00:17:42;;;;;;;8.55;3.65;;;;;;;20.28;46.31;102191.09;6193914;23;20053;-65
2023/06/01 00:20:11;;;;;;;8.60;4.63;;;;;;;20.25;46.38;102188.03;6193258;23;20035;-65
2023/06/01 00:22:39;;;;;;;8.93;3.83;;;;;;;20.23;46.29;102179.28;6192340;23;20029;-65
2023/06/01 00:25:08;;;;;;;8.18;3.45;;;;;;;20.20;46.36;102183.34;6192635;23;20024;-62
2023/06/01 00:27:36;;;;;;;9.65;3.85;;;;;;;20.20;46.34;102190.69;6192812;23;20025;-61
2023/06/01 00:30:04;;;;;;;6.68;3.63;;;;;;;20.17;46.34;102181.13;6194630;23;20124;-65
2023/06/01 00:32:32;;;;;;;6.63;4.35;;;;;;;20.15;46.35;102184.09;6194875;23;20025;-64
2023/06/01 00:35:01;;;;;;;12.15;4.75;;;;;;;20.10;46.50;102183.22;6194987;23;20025;-65
2023/06/01 00:37:29;;;;;;;12.80;4.93;;;;;;;20.07;46.51;102183.72;6194331;23;20025;-64
2023/06/01 00:39:57;;;;;;;9.35;3.88;;;;;;;20.03;46.52;102179.84;6193749;23;20025;-65
2023/06/01 00:42:25;;;;;;;8.70;4.15;;;;;;;20.00;46.59;102193.97;6193627;23;20363;-64
2023/06/01 00:44:53;;;;;;;11.32;4.45;;;;;;;19.95;46.82;102180.28;6195033;23;20025;-65
2023/06/01 00:47:21;;;;;;;9.88;4.70;;;;;;;19.91;46.88;102182.69;6194660;23;20349;-65
2023/06/01 00:49:49;;;;;;;10.38;5.75;;;;;;;19.79;47.07;102171.03;6195200;23;20049;-65
2023/06/01 00:52:19;;;;;;;6.57;3.85;;;;;;;19.85;46.81;102180.94;6194381;23;20025;-64
2023/06/01 00:54:47;;;;;;;9.40;4.20;;;;;;;19.82;47.02;102187.75;6191997;23;20532;-63
2023/06/01 00:57:15;;;;;;;14.23;4.40;;;;;;;19.83;46.87;102180.38;6191993;23;20024;-65
2023/06/01 00:59:42;;;;;;;7.15;3.72;;;;;;;19.82;46.85;102187.75;6193868;23;20104;-64
2023/06/01 01:02:15;;;;;;;7.63;4.43;;;;;;;19.81;46.89;102188.81;6191133;23;20025;-65
2023/06/01 01:04:43;;;;;;;6.90;4.35;;;;;;;19.78;46.77;102189.31;6194001;23;20087;-66
2023/06/01 01:07:21;;;;;;;9.70;4.10;;;;;;;19.74;46.81;102192.78;6193864;23;20025;-65
2023/06/01 01:09:57;;;;;;;7.60;4.03;;;;;;;19.71;47.09;102190.56;6194845;23;20052;-67
2023/06/01 01:12:32;;;;;;;8.50;4.55;;;;;;;19.67;47.09;102183.97;6190363;23;20498;-62
2023/06/01 01:15:08;;;;;;;13.45;5.18;;;;;;;19.64;47.06;102190.75;6193319;23;20083;-66
2023/06/01 01:17:39;;;;;;;8.38;4.13;;;;;;;19.60;47.04;102191.50;6194287;23;20025;-65
2023/06/01 01:20:11;;;;;;;8.27;4.38;;;;;;;19.57;47.11;102192.81;6194793;23;20029;-62
2023/06/01 01:23:06;;;;;;;8.88;4.50;;;;;;;19.56;46.97;102193.06;6193248;23;20032;-64
2023/06/01 01:26:03;;;;;;;7.30;4.03;;;;;;;19.54;47.09;102196.03;6193816;23;20585;-64
2023/06/01 01:28:38;;;;;;;6.67;4.17;;;;;;;19.51;46.97;102191.06;6192204;23;20052;-64
2023/06/01 01:31:10;;;;;;;11.52;4.95;;;;;;;19.47;47.28;102193.44;6195260;23;20032;-65
2023/06/01 01:33:39;;;;;;;8.25;4.70;;;;;;;19.43;47.14;102196.91;6194402;23;20028;-65
2023/06/01 01:36:09;;;;;;;9.13;4.93;;;;;;;19.38;47.10;102188.66;6194609;23;20745;-66
2023/06/01 01:38:38;;;;;;;10.60;5.38;;;;;;;19.38;47.39;102199.56;6194120;23;20025;-65
2023/06/01 01:41:05;;;;;;;8.43;4.47;;;;;;;19.36;47.35;102196.25;6192085;23;20032;-65
2023/06/01 01:43:36;;;;;;;7.35;4.70;;;;;;;19.35;47.22;102200.06;6191866;23;20063;-64
2023/06/01 01:46:13;;;;;;;6.97;4.78;;;;;;;19.35;47.24;102200.06;6194289;23;20024;-65
2023/06/01 01:48:49;;;;;;;8.23;4.47;;;;;;;19.33;47.17;102208.47;6195627;23;20025;-66
2023/06/01 01:51:23;;;;;;;10.63;3.95;;;;;;;19.30;47.27;102203.53;6195098;23;20068;-65
2023/06/01 01:53:53;;;;;;;9.68;4.85;;;;;;;19.30;47.14;102205.41;6195852;23;20032;-64
2023/06/01 01:56:22;;;;;;;8.55;4.53;;;;;;;19.28;46.92;102200.22;6194689;23;20044;-64
2023/06/01 01:58:51;;;;;;;8.10;4.85;;;;;;;19.26;46.87;102207.00;6197277;23;20092;-65
2023/06/01 02:01:20;;;;;;;9.93;3.95;;;;;;;19.22;46.83;102211.28;6195895;23;20028;-64
2023/06/01 02:03:48;;;;;;;11.90;4.88;;;;;;;19.18;46.84;102211.78;6194986;23;20051;-66
2023/06/01 02:06:16;;;;;;;12.98;4.10;;;;;;;19.16;46.90;102203.00;6191939;23;20498;-64
2023/06/01 02:08:43;;;;;;;8.73;4.05;;;;;;;19.14;46.63;102201.59;6192237;23;20025;-65
2023/06/01 02:11:11;;;;;;;8.52;4.65;;;;;;;19.12;46.70;102199.13;6193026;23;20021;-65
2023/06/01 02:13:39;;;;;;;8.95;4.60;;;;;;;19.08;46.60;102197.97;6194699;23;20032;-65
2023/06/01 02:16:08;;;;;;;10.52;4.68;;;;;;;19.04;46.69;102196.84;6194212;23;20024;-66
2023/06/01 02:18:39;;;;;;;6.90;4.13;;;;;;;19.02;46.79;102198.16;6193653;23;20052;-66
2023/06/01 02:21:08;;;;;;;7.55;4.28;;;;;;;19.00;46.74;102197.56;6192616;23;20079;-65
2023/06/01 02:23:39;;;;;;;8.80;4.70;;;;;;;18.96;46.85;102196.41;6191718;23;20127;-65
2023/06/01 02:26:07;;;;;;;11.45;5.03;;;;;;;18.94;47.03;102198.53;6190848;23;20049;-65
2023/06/01 02:28:38;;;;;;;10.00;4.85;;;;;;;18.94;46.89;102193.94;6191932;23;20032;-63
2023/06/01 02:31:08;;;;;;;9.65;4.20;;;;;;;18.91;47.01;102193.59;6190950;23;20029;-64
2023/06/01 02:33:35;;;;;;;9.38;4.43;;;;;;;18.89;46.89;102195.72;6190010;23;20028;-65
2023/06/01 02:36:03;;;;;;;10.07;4.82;;;;;;;18.83;47.10;102192.91;6190858;23;20052;-65
2023/06/01 02:38:31;;;;;;;10.18;5.25;;;;;;;18.78;47.26;102190.09;6190146;23;20036;-64
2023/06/01 02:40:59;;;;;;;8.30;5.18;;;;;;;18.75;47.17;102198.75;6192083;23;20025;-64
2023/06/01 02:43:27;;;;;;;7.70;4.93;;;;;;;18.71;47.16;102194.03;6193379;23;20077;-65
2023/06/01 02:45:55;;;;;;;13.18;5.63;;;;;;;18.68;47.46;102194.53;6190444;23;20052;-64
2023/06/01 02:48:24;;;;;;;8.70;5.53;;;;;;;18.63;47.25;102199.88;6191208;23;20025;-65
2023/06/01 02:50:52;;;;;;;8.85;5.97;;;;;;;18.62;47.37;102198.22;6189071;23;20021;-65
2023/06/01 02:53:20;;;;;;;8.15;5.35;;;;;;;18.59;47.23;102194.03;6190111;23;20131;-64
2023/06/01 02:55:48;;;;;;;12.95;5.60;;;;;;;18.51;47.44;102188.97;6189283;23;20076;-65
2023/06/01 02:58:16;;;;;;;12.40;6.00;;;;;;;18.50;47.44;102184.59;6190022;23;20029;-61
2023/06/01 03:00:44;;;;;;;11.20;5.50;;;;;;;18.51;47.32;102197.16;6190854;23;20025;-63
2023/06/01 03:03:12;;;;;;;10.32;5.95;;;;;;;18.49;47.32;102199.28;6190408;23;20065;-64
2023/06/01 03:05:42;;;;;;;8.52;6.03;;;;;;;18.48;47.14;102192.19;6190686;23;20051;-65
2023/06/01 03:08:10;;;;;;;12.93;5.97;;;;;;;18.45;47.27;102214.44;6190044;23;20455;-65
2023/06/01 03:10:38;;;;;;;11.20;6.15;;;;;;;18.40;47.27;102201.56;6189179;23;20052;-61
2023/06/01 03:13:06;;;;;;;15.38;7.75;;;;;;;18.38;47.32;102202.88;6191635;23;20025;-63
2023/06/01 03:15:34;;;;;;;13.32;6.30;;;;;;;18.37;47.13;102207.50;6191303;23;20033;-66
2023/06/01 03:18:02;;;;;;;14.88;7.82;;;;;;;18.37;47.21;102214.81;6192038;23;20091;-67
2023/06/01 03:20:30;;;;;;;9.43;6.60;;;;;;;18.35;47.15;102215.06;6190632;23;20096;-62
2023/06/01 03:22:59;;;;;;;14.02;7.03;;;;;;;18.32;47.23;102212.00;6191119;23;20368;-64
2023/06/01 03:25:28;;;;;;;13.15;5.60;;;;;;;18.30;47.11;102216.84;6190689;23;20079;-62
2023/06/01 03:27:55;;;;;;;10.02;6.35;;;;;;;18.28;47.03;102217.09;6191441;23;20025;-65
2023/06/01 03:30:23;;;;;;;9.48;5.93;;;;;;;18.28;46.92;102213.53;6191010;23;20032;-64
2023/06/01 03:32:51;;;;;;;9.52;6.80;;;;;;;18.25;47.12;102206.69;6191917;23;20025;-65
2023/06/01 03:35:19;;;;;;;11.93;6.75;;;;;;;18.23;47.27;102205.28;6191084;23;20077;-65
2023/06/01 03:37:47;;;;;;;11.80;7.10;;;;;;;18.20;47.02;102209.31;6190506;23;20020;-65
2023/06/01 03:40:16;;;;;;;9.40;5.43;;;;;;;18.16;47.12;102211.66;6189933;23;20029;-61
2023/06/01 03:42:46;;;;;;;9.60;5.82;;;;;;;18.11;47.29;102214.28;6191402;23;20380;-65
2023/06/01 03:45:16;;;;;;;12.32;5.75;;;;;;;18.09;47.26;102208.25;6191463;23;20029;-65
2023/06/01 03:47:44;;;;;;;10.95;6.00;;;;;;;18.07;47.27;102204.94;6191159;23;20101;-65
2023/06/01 03:50:12;;;;;;;8.77;5.53;;;;;;;18.05;47.27;102204.34;6191477;23;20099;-63
2023/06/01 03:52:40;;;;;;;8.43;6.13;;;;;;;18.04;47.56;102210.03;6190263;23;20316;-65
2023/06/01 03:55:10;;;;;;;10.75;5.75;;;;;;;18.03;47.41;102211.94;6192427;23;20095;-62
2023/06/01 03:57:40;;;;;;;15.32;6.43;;;;;;;18.01;47.30;102211.34;6192562;23;20029;-65
2023/06/01 04:00:18;;;;;;;9.38;5.13;;;;;;;17.99;47.44;102221.63;6191274;23;20035;-65
2023/06/01 04:02:52;;;;;;;10.48;5.43;;;;;;;17.94;47.34;102217.97;6190992;23;20036;-65
2023/06/01 04:05:20;;;;;;;11.85;5.80;;;;;;;17.95;47.49;102216.91;6191782;23;20021;-65
2023/06/01 04:07:50;;;;;;;13.15;5.80;;;;;;;17.89;47.63;102216.78;6191092;23;20021;-63
2023/06/01 04:10:18;;;;;;;10.13;5.57;;;;;;;17.87;47.60;102216.19;6190044;23;20047;-64
2023/06/01 04:12:49;;;;;;;10.52;6.15;;;;;;;17.86;47.60;102217.25;6192090;23;20035;-65
2023/06/01 04:15:19;;;;;;;8.00;5.00;;;;;;;17.84;47.49;102218.56;6191197;23;20078;-63
2023/06/01 04:17:47;;;;;;;9.25;6.07;;;;;;;17.80;47.65;102217.38;6191271;23;20083;-64
2023/06/01 04:20:17;;;;;;;8.82;5.00;;;;;;;17.79;47.60;102221.16;6189850;23;20474;-64
2023/06/01 04:22:46;;;;;;;9.15;5.40;;;;;;;17.79;47.73;102221.16;6192639;23;20029;-64
2023/06/01 04:25:17;;;;;;;8.35;4.82;;;;;;;17.75;47.68;102215.38;6192046;23;20036;-63
2023/06/01 04:27:48;;;;;;;13.25;5.50;;;;;;;17.76;47.69;102222.47;6192481;23;20025;-63
2023/06/01 04:30:16;;;;;;;9.13;4.45;;;;;;;17.76;47.56;102227.91;6190352;23;20035;-64
2023/06/01 04:32:47;;;;;;;13.60;4.93;;;;;;;17.72;47.69;102229.44;6191108;23;20028;-67
2023/06/01 04:35:16;;;;;;;9.32;4.85;;;;;;;17.70;47.60;102230.72;6190634;23;20035;-66
2023/06/01 04:37:44;;;;;;;9.10;5.40;;;;;;;17.68;47.68;102232.84;6190342;23;20052;-64
2023/06/01 04:40:13;;;;;;;8.43;5.00;;;;;;;17.64;47.68;102234.34;6191062;23;20029;-60
2023/06/01 04:42:45;;;;;;;9.45;5.30;;;;;;;17.63;47.62;102235.41;6192217;23;20040;-64
2023/06/01 04:45:15;;;;;;;8.27;4.47;;;;;;;17.60;47.77;102235.88;6192125;23;20024;-62
2023/06/01 04:47:44;;;;;;;9.90;5.45;;;;;;;17.61;47.76;102237.53;6190761;23;20025;-64
2023/06/01 04:50:15;;;;;;;9.57;4.90;;;;;;;17.61;47.65;102230.22;6190918;23;20470;-66
2023/06/01 04:52:44;;;;;;;13.52;4.10;;;;;;;17.61;47.55;102234.81;6192267;23;20024;-67
2023/06/01 04:55:13;;;;;;;6.97;4.63;;;;;;;17.58;47.60;102231.50;6191998;23;20516;-63
2023/06/01 04:57:43;;;;;;;8.10;5.00;;;;;;;17.57;47.52;102235.28;6190907;23;20037;-65
2023/06/01 05:00:17;;;;;;;9.73;4.55;;;;;;;17.57;47.59;102227.16;6189650;23;20029;-66
2023/06/01 05:02:47;;;;;;;10.13;4.60;;;;;;;17.58;47.38;102227.97;6189509;23;20025;-66
2023/06/01 05:05:16;;;;;;;6.60;4.00;;;;;;;17.58;47.55;102230.69;6189375;23;20052;-65
2023/06/01 05:07:44;;;;;;;8.65;4.22;;;;;;;17.58;47.48;102238.84;6190394;23;20025;-65
2023/06/01 05:10:13;;;;;;;8.30;4.20;;;;;;;17.56;47.33;102238.25;6192524;23;20043;-63
2023/06/01 05:12:41;;;;;;;12.27;4.90;;;;;;;17.54;47.41;102232.22;6192487;23;20025;-65
2023/06/01 05:15:10;;;;;;;7.55;4.13;;;;;;;17.51;47.30;102229.97;6193290;23;20498;-62
2023/06/01 05:17:40;;;;;;;10.10;4.50;;;;;;;17.51;47.34;102227.25;6194634;23;20029;-65
2023/06/01 05:20:11;;;;;;;7.57;4.00;;;;;;;17.49;47.37;102242.97;6191504;23;20036;-65
2023/06/01 05:22:39;;;;;;;8.95;4.30;;;;;;;17.46;47.21;102238.81;6190780;23;20036;-65
2023/06/01 05:25:08;;;;;;;7.10;4.60;;;;;;;17.45;47.36;102236.34;6190160;23;20032;-60
2023/06/01 05:27:36;;;;;;;8.80;5.03;;;;;;;17.44;47.33;102232.78;6191256;23;20036;-62
2023/06/01 05:30:05;;;;;;;9.02;4.50;;;;;;;17.39;47.26;102231.84;6190828;23;20021;-64
2023/06/01 05:32:33;;;;;;;8.25;4.90;;;;;;;17.39;47.32;102238.09;6189791;23;20039;-63
2023/06/01 05:35:04;;;;;;;7.93;4.60;;;;;;;17.39;47.52;102234.56;6185801;23;20025;-64
2023/06/01 05:37:32;;;;;;;9.55;4.50;;;;;;;17.40;47.28;102228.06;6186743;23;20479;-62
2023/06/01 05:39:59;;;;;;;10.43;4.93;;;;;;;17.41;47.39;102222.38;6187524;23;20028;-63
2023/06/01 05:42:27;;;;;;;8.23;3.58;;;;;;;17.43;47.40;102222.16;6183829;23;20159;-63
2023/06/01 05:44:55;;;;;;;9.82;4.43;;;;;;;17.45;47.24;102225.47;6187496;23;20087;-64
2023/06/01 05:47:23;;;;;;;10.07;5.05;;;;;;;17.45;47.28;102230.91;6189180;23;20025;-66
2023/06/01 05:49:51;;;;;;;9.65;4.80;;;;;;;17.46;47.46;102222.53;6189898;23;20150;-63
2023/06/01 05:52:20;;;;;;;9.35;5.07;;;;;;;17.47;47.41;102221.44;6188278;23;20278;-64
2023/06/01 05:54:50;;;;;;;7.80;4.03;;;;;;;17.50;47.45;102220.16;6189824;23;20060;-64
2023/06/01 05:57:18;;;;;;;7.97;4.50;;;;;;;17.51;47.38;102217.22;6188489;23;20029;-64
2023/06/01 05:59:46;;;;;;;10.05;4.47;;;;;;;17.53;47.27;102219.69;6188738;23;20024;-65
2023/06/01 06:02:15;;;;;;;9.43;4.90;;;;;;;17.54;47.31;102219.44;6188669;23;20029;-64
2023/06/01 06:04:44;;;;;;;10.15;4.35;;;;;;;17.55;47.29;102221.13;6188170;23;20035;-61
2023/06/01 06:07:12;;;;;;;10.20;4.53;;;;;;;17.56;47.13;102233.63;6187228;23;20029;-64
2023/06/01 06:09:41;;;;;;;7.88;4.05;;;;;;;17.54;47.04;102227.59;6186148;23;20029;-63
2023/06/01 06:12:09;;;;;;;7.78;4.72;;;;;;;17.53;46.99;102230.56;6187120;23;20033;-61
2023/06/01 06:14:37;;;;;;;9.23;5.07;;;;;;;17.40;47.25;102234.31;6192279;23;20025;-62
2023/06/01 06:17:08;;;;;;;20.02;5.88;;;;;;;17.36;47.34;102240.47;6192477;23;20027;-64
2023/06/01 06:19:36;;;;;;;7.70;4.88;;;;;;;17.35;47.32;102238.81;6194078;23;20028;-64
2023/06/01 06:22:04;;;;;;;7.53;4.53;;;;;;;17.33;47.41;102236.34;6192637;23;20025;-64
2023/06/01 06:24:32;;;;;;;11.57;5.10;;;;;;;17.36;47.58;102235.03;6192029;23;20415;-60
2023/06/01 06:27:01;;;;;;;8.38;5.28;;;;;;;17.37;47.31;102237.50;6192442;23;20025;-64
2023/06/01 06:29:30;;;;;;;11.32;4.63;;;;;;;17.38;47.32;102241.88;6192518;23;20100;-63
2023/06/01 06:31:59;;;;;;;12.18;4.80;;;;;;;17.44;47.24;102243.66;6192352;23;21455;-64
2023/06/01 06:34:33;;;;;;;7.97;4.85;;;;;;;17.48;47.20;102244.03;6193005;23;20025;-63
2023/06/01 06:37:01;;;;;;;9.30;4.68;;;;;;;17.51;47.18;102243.56;6191347;23;20419;-63
2023/06/01 06:39:29;;;;;;;10.90;4.55;;;;;;;17.54;47.22;102243.09;6192008;23;20323;-64
2023/06/01 06:41:57;;;;;;;6.88;4.57;;;;;;;17.55;47.11;102226.53;6192880;23;20025;-63
2023/06/01 06:44:26;;;;;;;8.35;4.45;;;;;;;17.57;47.11;102229.03;6194143;23;20024;-64
2023/06/01 06:46:54;;;;;;;9.00;4.75;;;;;;;17.60;47.09;102225.84;6193575;23;20111;-65
2023/06/01 06:49:21;;;;;;;8.60;4.72;;;;;;;17.63;47.14;102236.25;6194090;23;20075;-64
2023/06/01 06:51:50;;;;;;;9.55;4.93;;;;;;;17.65;47.11;102234.13;6192738;23;20124;-64
2023/06/01 06:54:18;;;;;;;10.13;4.97;;;;;;;17.68;47.15;102235.56;6193654;23;20576;-64
2023/06/01 06:56:46;;;;;;;9.40;4.63;;;;;;;17.69;47.17;102231.78;6192246;23;20450;-64
2023/06/01 06:59:14;;;;;;;12.20;5.03;;;;;;;17.71;47.35;102245.97;6193034;23;20024;-64
2023/06/01 07:01:43;;;;;;;9.70;4.85;;;;;;;17.71;47.17;102235.94;6193458;23;20029;-63
2023/06/01 07:04:11;;;;;;;10.90;4.80;;;;;;;17.72;47.09;102245.75;6192164;23;20081;-60
2023/06/01 07:06:39;;;;;;;8.45;4.50;;;;;;;17.74;47.14;102240.91;6191328;23;20025;-65
2023/06/01 07:09:07;;;;;;;10.93;5.55;;;;;;;17.75;47.13;102247.16;6191283;23;20056;-63
2023/06/01 07:11:35;;;;;;;9.68;4.60;;;;;;;17.76;47.17;102246.94;6190200;23;20056;-64
2023/06/01 07:14:03;;;;;;;9.27;4.43;;;;;;;17.76;47.13;102248.81;6191581;23;20063;-64
2023/06/01 07:16:31;;;;;;;7.07;4.43;;;;;;;17.77;47.14;102242.31;6191533;23;20025;-65
2023/06/01 07:19:00;;;;;;;11.20;4.40;;;;;;;17.76;47.20;102236.06;6191207;23;20060;-65
2023/06/01 07:21:27;;;;;;;11.55;5.20;;;;;;;17.76;47.20;102233.34;6191266;23;20025;-65
2023/06/01 07:23:55;;;;;;;7.45;3.97;;;;;;;17.73;47.31;102233.81;6190632;23;20080;-63
2023/06/01 07:26:25;;;;;;;9.65;4.75;;;;;;;17.72;47.20;102237.59;6189016;23;20099;-64
2023/06/01 07:28:53;;;;;;;14.55;4.70;;;;;;;17.72;47.36;102240.31;6191052;23;20139;-64
2023/06/01 07:31:21;;;;;;;12.43;5.25;;;;;;;17.71;47.41;102238.66;6191334;23;20126;-65
2023/06/01 07:33:51;;;;;;;13.52;4.75;;;;;;;17.71;47.34;102235.09;6191387;23;20506;-65
2023/06/01 07:36:21;;;;;;;7.75;4.55;;;;;;;17.70;47.26;102239.72;6189598;23;20103;-63
2023/06/01 07:38:49;;;;;;;9.38;5.05;;;;;;;17.70;47.32;102241.59;6191366;23;20195;-63
2023/06/01 07:41:17;;;;;;;7.60;3.83;;;;;;;17.68;47.38;102241.84;6190665;23;20024;-65
2023/06/01 07:43:45;;;;;;;7.70;4.40;;;;;;;17.68;47.43;102238.28;6191414;23;20028;-64
2023/06/01 07:46:13;;;;;;;11.00;4.50;;;;;;;17.68;47.24;102238.28;6191312;23;20032;-65
2023/06/01 07:48:41;;;;;;;11.05;4.95;;;;;;;17.67;47.38;102242.06;6190712;23;20052;-63
2023/06/01 07:51:09;;;;;;;9.75;4.85;;;;;;;17.68;47.35;102236.41;6190221;23;20025;-66
2023/06/01 07:53:38;;;;;;;10.05;4.88;;;;;;;17.68;47.35;102238.28;6190742;23;20040;-62
2023/06/01 07:56:06;;;;;;;10.13;4.80;;;;;;;17.69;47.52;102239.94;6190814;23;20032;-65
2023/06/01 07:58:33;;;;;;;7.38;4.30;;;;;;;17.69;47.46;102245.38;6190885;23;20029;-63
2023/06/01 08:01:02;;;;;;;9.88;4.03;;;;;;;17.69;47.63;102232.63;6191355;23;20029;-64
2023/06/01 08:03:33;;;;;;;11.32;4.95;;;;;;;17.70;47.58;102238.88;6191481;23;20100;-64
2023/06/01 08:06:04;;;;;;;8.52;4.35;;;;;;;17.70;47.48;102238.88;6192006;23;20027;-64
2023/06/01 08:08:33;;;;;;;10.82;4.95;;;;;;;17.72;47.39;102231.31;6189695;23;20029;-63
2023/06/01 08:11:02;;;;;;;7.93;4.30;;;;;;;17.73;47.56;102233.81;6190529;23;20451;-61
2023/06/01 08:13:30;;;;;;;10.65;4.88;;;;;;;17.73;47.24;102231.09;6191367;23;20033;-65
2023/06/01 08:15:58;;;;;;;9.18;4.95;;;;;;;17.75;47.33;102231.69;6191337;23;20444;-65
2023/06/01 08:18:26;;;;;;;11.52;4.70;;;;;;;17.76;47.63;102227.06;6191499;23;20025;-62
2023/06/01 08:20:55;;;;;;;9.80;4.95;;;;;;;17.78;47.61;102231.22;6191518;23;20021;-65
2023/06/01 08:23:23;;;;;;;13.18;4.18;;;;;;;17.79;47.54;102234.75;6190522;23;20025;-64
2023/06/01 08:25:51;;;;;;;10.38;5.18;;;;;;;17.80;47.69;102226.34;6189336;23;20055;-63
2023/06/01 08:28:20;;;;;;;9.93;4.65;;;;;;;17.83;47.76;102230.50;6190654;23;20025;-64
2023/06/01 08:30:48;;;;;;;13.10;4.68;;;;;;;17.85;47.73;102228.38;6189654;23;20449;-64
2023/06/01 08:33:16;;;;;;;8.38;4.53;;;;;;;17.85;47.67;102226.47;6189294;23;20029;-63
2023/06/01 08:35:44;;;;;;;7.57;4.68;;;;;;;17.86;47.64;102224.59;6189967;23;20029;-64
2023/06/01 08:38:11;;;;;;;12.13;5.53;;;;;;;17.88;47.74;102222.47;6189661;23;20137;-64
2023/06/01 08:40:40;;;;;;;10.68;4.80;;;;;;;17.89;47.68;102226.84;6187805;23;20447;-62
2023/06/01 08:43:15;;;;;;;13.13;4.90;;;;;;;17.90;47.70;102220.31;6189700;23;20035;-63
2023/06/01 08:45:46;;;;;;;10.45;5.45;;;;;;;17.92;47.87;102217.38;6189419;23;20076;-63
2023/06/01 08:48:17;;;;;;;12.90;5.07;;;;;;;17.92;47.84;102215.47;6189518;23;20387;-63
2023/06/01 08:50:50;;;;;;;10.07;4.85;;;;;;;17.94;47.87;102218.78;6191025;23;20056;-64
2023/06/01 08:53:21;;;;;;;8.02;4.40;;;;;;;17.97;47.82;102212.06;6191117;23;20039;-65
2023/06/01 08:55:52;;;;;;;11.50;5.10;;;;;;;18.00;47.85;102211.56;6190006;23;20024;-65
2023/06/01 08:58:20;;;;;;;7.95;4.50;;;;;;;18.00;47.85;102206.97;6191773;23;20028;-64
2023/06/01 09:00:50;;;;;;;7.95;5.05;;;;;;;18.00;48.09;102212.41;6190749;23;20025;-63
2023/06/01 09:03:18;;;;;;;8.82;5.60;;;;;;;18.06;48.06;102221.50;6189742;23;20025;-64
2023/06/01 09:05:45;;;;;;;14.13;4.82;;;;;;;18.08;48.00;102209.31;6192510;23;20021;-65
2023/06/01 09:08:14;;;;;;;8.57;4.60;;;;;;;18.10;47.92;102201.75;6192963;23;20029;-64
2023/06/01 09:10:42;;;;;;;12.13;5.20;;;;;;;18.11;47.94;102195.22;6191934;23;20024;-65
2023/06/01 09:13:10;;;;;;;13.75;5.68;;;;;;;18.13;48.00;102197.72;6192556;23;20029;-64
2023/06/01 09:15:53;;;;;;;11.65;5.43;;;;;;;18.13;47.95;102198.53;6192146;23;20079;-64
2023/06/01 09:18:21;;;;;;;11.27;4.53;;;;;;;18.15;47.92;102199.13;6192728;23;20521;-64
2023/06/01 09:20:49;;;;;;;11.80;5.07;;;;;;;18.17;47.99;102199.72;6194566;23;20455;-65
2023/06/01 09:23:24;;;;;;;7.40;4.05;;;;;;;18.19;48.17;102203.03;6190806;23;20099;-64
2023/06/01 09:26:05;;;;;;;13.68;4.95;;;;;;;18.23;47.86;102194.38;6190740;23;20112;-65
2023/06/01 09:28:55;;;;;;;14.07;5.28;;;;;;;18.25;47.89;102192.25;6192163;23;20025;-64
2023/06/01 09:31:41;;;;;;;8.57;4.35;;;;;;;18.21;47.83;102178.28;6191492;23;20032;-64
2023/06/01 09:34:11;;;;;;;11.35;5.45;;;;;;;18.26;47.89;102177.56;6190548;23;20029;-63
2023/06/01 09:36:39;;;;;;;11.98;5.20;;;;;;;18.26;47.74;102174.84;6190937;23;20498;-63
2023/06/01 09:39:08;;;;;;;10.15;5.32;;;;;;;18.29;47.69;102171.66;6191480;23;20091;-65
2023/06/01 09:41:50;;;;;;;10.50;5.38;;;;;;;18.29;47.91;102174.38;6190724;23;20176;-64
2023/06/01 09:44:27;;;;;;;10.32;5.28;;;;;;;18.32;47.86;102177.44;6191102;23;20059;-64
2023/06/01 09:46:57;;;;;;;10.98;4.88;;;;;;;18.35;47.81;102170.69;6190714;23;20052;-64
2023/06/01 09:49:27;;;;;;;9.00;5.00;;;;;;;18.35;47.66;102165.25;6190132;23;20143;-65
2023/06/01 09:52:10;;;;;;;11.75;5.80;;;;;;;18.35;47.29;102165.25;6190434;23;20029;-64
2023/06/01 09:54:40;;;;;;;8.77;5.88;;;;;;;18.31;47.37;102164.91;6190900;23;20087;-65
2023/06/01 09:57:09;;;;;;;12.55;6.32;;;;;;;18.34;47.50;102160.88;6189666;23;20029;-64
2023/06/01 09:59:41;;;;;;;16.58;6.05;;;;;;;18.35;47.70;102159.81;6190245;23;20056;-62
2023/06/01 10:02:14;;;;;;;13.57;6.38;;;;;;;18.36;47.46;102165.00;6191483;23;20029;-65
2023/06/01 10:04:45;;;;;;;14.23;7.18;;;;;;;18.37;47.53;102166.66;6191263;23;20036;-61
2023/06/01 10:07:14;;;;;;;9.45;6.05;;;;;;;18.41;47.43;102165.09;6188975;23;20025;-66
2023/06/01 10:09:44;;;;;;;16.77;6.85;;;;;;;18.43;47.44;102165.69;6189833;23;20032;-65
2023/06/01 10:12:12;;;;;;;10.35;5.95;;;;;;;18.47;47.72;102168.75;6190744;23;20124;-63
2023/06/01 10:14:40;;;;;;;12.20;6.38;;;;;;;18.50;47.53;102162.81;6192629;23;20083;-63
2023/06/01 10:17:09;;;;;;;14.70;6.28;;;;;;;18.51;47.62;102159.88;6191576;23;20056;-65
2023/06/01 10:19:38;;;;;;;9.43;5.38;;;;;;;18.55;47.49;102152.03;6192493;23;20036;-63
2023/06/01 10:22:07;;;;;;;14.10;6.43;;;;;;;18.57;47.16;102154.50;6191587;23;20025;-62
2023/06/01 10:24:40;;;;;;;13.25;7.38;;;;;;;18.61;46.95;102156.53;6191165;23;20036;-63
2023/06/01 10:27:19;;;;;;;11.65;5.15;;;;;;;18.65;47.44;102154.16;6190227;23;20025;-64
2023/06/01 10:29:48;;;;;;;12.20;5.63;;;;;;;18.68;47.49;102151.78;6191198;23;20029;-66
2023/06/01 10:32:45;;;;;;;12.25;5.90;;;;;;;18.71;47.44;102148.56;6190504;23;20037;-64
2023/06/01 10:35:53;;;;;;;11.95;5.50;;;;;;;18.78;47.83;102148.41;6189481;23;20638;-64
2023/06/01 10:38:26;;;;;;;11.75;5.25;;;;;;;18.85;47.69;102146.34;6189914;23;20576;-60
2023/06/01 10:40:53;;;;;;;10.45;5.47;;;;;;;18.79;47.09;102133.72;6188941;23;20025;-65
2023/06/01 10:43:41;;;;;;;11.52;5.45;;;;;;;18.90;47.05;102146.44;6190627;23;20029;-64
2023/06/01 10:46:37;;;;;;;12.32;5.78;;;;;;;18.91;47.07;102137.19;6189286;23;20021;-65
2023/06/01 10:49:06;;;;;;;9.75;5.35;;;;;;;18.94;47.47;102144.06;6185967;23;20029;-64
2023/06/01 10:51:35;;;;;;;11.40;5.95;;;;;;;18.96;47.50;102137.28;6184215;23;20037;-63
2023/06/01 10:54:26;;;;;;;11.05;6.18;;;;;;;19.00;47.42;102138.44;6186030;23;20395;-62
2023/06/01 10:57:22;;;;;;;11.07;5.40;;;;;;;19.06;47.47;102142.09;6186472;23;20083;-61
2023/06/01 11:00:15;;;;;;;12.05;6.65;;;;;;;19.12;47.31;102141.91;6038861;23;20041;-63
2023/06/01 11:02:49;;;;;;;9.93;5.47;;;;;;;19.17;47.55;102141.16;6033976;23;20027;-62
2023/06/01 11:05:43;;;;;;;11.20;5.90;;;;;;;19.22;47.13;102127.59;6038754;23;20417;-60
2023/06/01 11:08:44;;;;;;;9.77;5.35;;;;;;;19.16;47.03;102115.81;6034305;23;20867;-63
2023/06/01 11:11:13;;;;;;;12.95;5.68;;;;;;;19.25;46.57;102126.28;6034304;23;20059;-63
2023/06/01 11:13:41;;;;;;;11.30;5.68;;;;;;;19.28;46.56;102120.34;6039875;23;20094;-62
2023/06/01 11:16:28;;;;;;;13.48;5.25;;;;;;;19.30;46.61;102123.63;6038688;23;20031;-62
2023/06/01 11:18:58;;;;;;;10.40;5.55;;;;;;;19.34;46.36;102119.34;6040195;23;20179;-59
2023/06/01 11:21:28;;;;;;;11.98;6.25;;;;;;;19.36;46.49;102128.91;6039338;23;20094;-61
2023/06/01 11:23:57;;;;;;;15.05;6.07;;;;;;;19.35;46.11;102116.38;6040759;23;20027;-62
2023/06/01 11:26:32;;;;;;;8.93;5.22;;;;;;;19.42;46.00;102111.56;6038425;23;20019;-63
2023/06/01 11:29:09;;;;;;;11.55;5.70;;;;;;;19.46;45.86;102120.91;6040957;23;20027;-62
2023/06/01 11:31:39;;;;;;;9.68;5.88;;;;;;;19.48;45.95;102110.56;6067448;23;20144;-63
2023/06/01 11:34:09;;;;;;;10.35;6.10;;;;;;;19.53;45.96;102119.94;6070176;23;20034;-62
2023/06/01 11:36:38;;;;;;;9.27;4.95;;;;;;;19.57;45.87;102115.63;6174753;23;20024;-62